sensor_id;sensor_type;location;lat;lon;timestamp;P1;durP1;ratioP1;P2;durP2;ratioP2
40993;SDS011;26722;43.212;27.932;2022-12-07T00:00:48;5.63;;;2.58;;
40993;SDS011;26722;43.212;27.932;2022-12-07T00:03:13;7.68;;;2.60;;
40993;SDS011;26722;43.212;27.932;2022-12-07T00:05:39;9.85;;;2.70;;
40993;SDS011;26722;43.212;27.932;2022-12-07T00:08:04;8.05;;;2.85;;
40993;SDS011;26722;43.212;27.932;2022-12-07T00:10:30;8.43;;;2.33;;
40993;SDS011;26722;43.212;27.932;2022-12-07T00:12:55;6.10;;;2.53;;
40993;SDS011;26722;43.212;27.932;2022-12-07T00:15:20;8.45;;;2.50;;
40993;SDS011;26722;43.212;27.932;2022-12-07T00:17:46;7.35;;;2.83;;
40993;SDS011;26722;43.212;27.932;2022-12-07T00:20:11;10.05;;;2.92;;
40993;SDS011;26722;43.212;27.932;2022-12-07T00:22:37;7.22;;;2.20;;
40993;SDS011;26722;43.212;27.932;2022-12-07T00:25:02;6.25;;;2.92;;
40993;SDS011;26722;43.212;27.932;2022-12-07T00:27:28;6.40;;;2.58;;
40993;SDS011;26722;43.212;27.932;2022-12-07T00:29:53;5.10;;;2.65;;
40993;SDS011;26722;43.212;27.932;2022-12-07T00:32:18;4.88;;;2.78;;
40993;SDS011;26722;43.212;27.932;2022-12-07T00:34:44;11.35;;;2.60;;
40993;SDS011;26722;43.212;27.932;2022-12-07T00:37:09;9.60;;;2.80;;
40993;SDS011;26722;43.212;27.932;2022-12-07T00:39:35;8.23;;;2.78;;
40993;SDS011;26722;43.212;27.932;2022-12-07T00:42:00;10.73;;;2.97;;
40993;SDS011;26722;43.212;27.932;2022-12-07T00:44:26;8.52;;;3.33;;
40993;SDS011;26722;43.212;27.932;2022-12-07T00:46:51;8.13;;;2.90;;
40993;SDS011;26722;43.212;27.932;2022-12-07T00:49:16;14.18;;;3.05;;
40993;SDS011;26722;43.212;27.932;2022-12-07T00:51:42;12.27;;;3.47;;
40993;SDS011;26722;43.212;27.932;2022-12-07T00:54:07;6.88;;;2.95;;
40993;SDS011;26722;43.212;27.932;2022-12-07T00:56:33;7.65;;;2.90;;
40993;SDS011;26722;43.212;27.932;2022-12-07T00:59:00;16.13;;;3.75;;
40993;SDS011;26722;43.212;27.932;2022-12-07T01:01:28;10.45;;;3.33;;
40993;SDS011;26722;43.212;27.932;2022-12-07T01:03:55;9.73;;;3.20;;
40993;SDS011;26722;43.212;27.932;2022-12-07T01:06:21;6.03;;;2.97;;
40993;SDS011;26722;43.212;27.932;2022-12-07T01:08:47;6.10;;;3.10;;
40993;SDS011;26722;43.212;27.932;2022-12-07T01:11:14;6.13;;;3.33;;
40993;SDS011;26722;43.212;27.932;2022-12-07T01:13:43;7.30;;;3.03;;
40993;SDS011;26722;43.212;27.932;2022-12-07T01:16:09;9.50;;;3.55;;
40993;SDS011;26722;43.212;27.932;2022-12-07T01:18:38;6.68;;;3.58;;
40993;SDS011;26722;43.212;27.932;2022-12-07T01:21:05;7.32;;;3.20;;
40993;SDS011;26722;43.212;27.932;2022-12-07T01:23:36;5.05;;;3.38;;
40993;SDS011;26722;43.212;27.932;2022-12-07T01:26:04;6.32;;;3.30;;
40993;SDS011;26722;43.212;27.932;2022-12-07T01:28:31;8.23;;;3.22;;
40993;SDS011;26722;43.212;27.932;2022-12-07T01:30:57;6.75;;;2.95;;
40993;SDS011;26722;43.212;27.932;2022-12-07T01:33:29;7.20;;;3.30;;
40993;SDS011;26722;43.212;27.932;2022-12-07T01:36:03;5.78;;;3.05;;
40993;SDS011;26722;43.212;27.932;2022-12-07T01:38:31;12.25;;;3.72;;
40993;SDS011;26722;43.212;27.932;2022-12-07T01:40:58;6.18;;;3.17;;
40993;SDS011;26722;43.212;27.932;2022-12-07T01:43:26;12.27;;;3.50;;
40993;SDS011;26722;43.212;27.932;2022-12-07T01:45:54;4.40;;;2.83;;
40993;SDS011;26722;43.212;27.932;2022-12-07T01:48:27;9.00;;;3.25;;
40993;SDS011;26722;43.212;27.932;2022-12-07T01:50:59;6.80;;;3.63;;
40993;SDS011;26722;43.212;27.932;2022-12-07T01:53:29;6.32;;;3.70;;
40993;SDS011;26722;43.212;27.932;2022-12-07T01:55:57;10.68;;;3.90;;
40993;SDS011;26722;43.212;27.932;2022-12-07T01:58:24;10.25;;;3.40;;
40993;SDS011;26722;43.212;27.932;2022-12-07T02:00:50;9.30;;;4.00;;
40993;SDS011;26722;43.212;27.932;2022-12-07T02:03:18;11.88;;;3.85;;
40993;SDS011;26722;43.212;27.932;2022-12-07T02:05:44;10.00;;;4.03;;
40993;SDS011;26722;43.212;27.932;2022-12-07T02:08:11;11.20;;;4.68;;
40993;SDS011;26722;43.212;27.932;2022-12-07T02:10:38;7.60;;;4.25;;
40993;SDS011;26722;43.212;27.932;2022-12-07T02:13:05;12.77;;;4.75;;
40993;SDS011;26722;43.212;27.932;2022-12-07T02:21:27;11.77;;;4.20;;
40993;SDS011;26722;43.212;27.932;2022-12-07T02:34:50;10.60;;;5.47;;
40993;SDS011;26722;43.212;27.932;2022-12-07T02:40:49;11.35;;;5.00;;
40993;SDS011;26722;43.212;27.932;2022-12-07T02:43:20;12.65;;;6.35;;
40993;SDS011;26722;43.212;27.932;2022-12-07T02:45:50;10.25;;;5.47;;
40993;SDS011;26722;43.212;27.932;2022-12-07T02:48:18;11.93;;;5.90;;
40993;SDS011;26722;43.212;27.932;2022-12-07T02:50:49;13.13;;;7.13;;
40993;SDS011;26722;43.212;27.932;2022-12-07T02:53:38;13.70;;;6.28;;
40993;SDS011;26722;43.212;27.932;2022-12-07T02:59:32;13.80;;;6.65;;
40993;SDS011;26722;43.212;27.932;2022-12-07T03:15:55;10.52;;;6.47;;
40993;SDS011;26722;43.212;27.932;2022-12-07T03:18:29;10.05;;;6.38;;
40993;SDS011;26722;43.212;27.932;2022-12-07T03:20:58;15.52;;;7.03;;
40993;SDS011;26722;43.212;27.932;2022-12-07T03:23:30;11.15;;;7.32;;
40993;SDS011;26722;43.212;27.932;2022-12-07T03:26:00;13.32;;;6.60;;
40993;SDS011;26722;43.212;27.932;2022-12-07T03:28:29;11.23;;;7.38;;
40993;SDS011;26722;43.212;27.932;2022-12-07T03:33:53;11.07;;;6.90;;
40993;SDS011;26722;43.212;27.932;2022-12-07T03:36:35;14.93;;;7.93;;
40993;SDS011;26722;43.212;27.932;2022-12-07T03:39:24;14.50;;;8.32;;
40993;SDS011;26722;43.212;27.932;2022-12-07T03:41:54;12.00;;;7.55;;
40993;SDS011;26722;43.212;27.932;2022-12-07T03:44:22;17.45;;;7.97;;
40993;SDS011;26722;43.212;27.932;2022-12-07T03:52:28;17.73;;;7.82;;
40993;SDS011;26722;43.212;27.932;2022-12-07T03:55:06;13.43;;;7.90;;
40993;SDS011;26722;43.212;27.932;2022-12-07T03:57:53;14.85;;;7.07;;
40993;SDS011;26722;43.212;27.932;2022-12-07T04:00:23;18.48;;;7.75;;
40993;SDS011;26722;43.212;27.932;2022-12-07T04:02:51;19.15;;;6.80;;
40993;SDS011;26722;43.212;27.932;2022-12-07T04:05:17;17.27;;;7.07;;
40993;SDS011;26722;43.212;27.932;2022-12-07T04:07:43;11.00;;;6.75;;
40993;SDS011;26722;43.212;27.932;2022-12-07T04:10:09;17.10;;;7.00;;
40993;SDS011;26722;43.212;27.932;2022-12-07T04:12:34;10.75;;;6.88;;
40993;SDS011;26722;43.212;27.932;2022-12-07T04:15:00;17.70;;;7.70;;
40993;SDS011;26722;43.212;27.932;2022-12-07T04:17:25;16.27;;;7.05;;
40993;SDS011;26722;43.212;27.932;2022-12-07T04:19:51;15.48;;;7.10;;
40993;SDS011;26722;43.212;27.932;2022-12-07T04:22:16;15.05;;;7.57;;
40993;SDS011;26722;43.212;27.932;2022-12-07T04:24:42;20.08;;;7.53;;
40993;SDS011;26722;43.212;27.932;2022-12-07T04:27:07;13.98;;;7.20;;
40993;SDS011;26722;43.212;27.932;2022-12-07T04:29:32;16.90;;;7.95;;
40993;SDS011;26722;43.212;27.932;2022-12-07T04:31:58;14.88;;;7.28;;
40993;SDS011;26722;43.212;27.932;2022-12-07T04:34:23;15.15;;;8.32;;
40993;SDS011;26722;43.212;27.932;2022-12-07T04:36:49;16.50;;;8.07;;
40993;SDS011;26722;43.212;27.932;2022-12-07T04:39:28;23.42;;;8.73;;
40993;SDS011;26722;43.212;27.932;2022-12-07T04:41:54;13.65;;;7.75;;
40993;SDS011;26722;43.212;27.932;2022-12-07T04:44:20;20.15;;;8.50;;
40993;SDS011;26722;43.212;27.932;2022-12-07T04:46:46;25.45;;;8.65;;
40993;SDS011;26722;43.212;27.932;2022-12-07T04:49:12;14.52;;;8.45;;
40993;SDS011;26722;43.212;27.932;2022-12-07T04:51:38;15.57;;;8.85;;
40993;SDS011;26722;43.212;27.932;2022-12-07T04:54:04;15.77;;;8.60;;
40993;SDS011;26722;43.212;27.932;2022-12-07T04:56:29;19.70;;;9.15;;
40993;SDS011;26722;43.212;27.932;2022-12-07T04:58:55;15.52;;;8.55;;
40993;SDS011;26722;43.212;27.932;2022-12-07T05:01:21;18.52;;;9.52;;
40993;SDS011;26722;43.212;27.932;2022-12-07T05:03:48;17.70;;;9.65;;
40993;SDS011;26722;43.212;27.932;2022-12-07T05:06:14;18.15;;;9.50;;
40993;SDS011;26722;43.212;27.932;2022-12-07T05:08:40;21.00;;;9.35;;
40993;SDS011;26722;43.212;27.932;2022-12-07T05:11:06;15.48;;;9.50;;
40993;SDS011;26722;43.212;27.932;2022-12-07T05:13:32;18.52;;;10.35;;
40993;SDS011;26722;43.212;27.932;2022-12-07T05:15:58;23.70;;;10.60;;
40993;SDS011;26722;43.212;27.932;2022-12-07T05:18:24;18.65;;;10.82;;
40993;SDS011;26722;43.212;27.932;2022-12-07T05:20:50;19.90;;;10.55;;
40993;SDS011;26722;43.212;27.932;2022-12-07T05:23:16;19.95;;;11.57;;
40993;SDS011;26722;43.212;27.932;2022-12-07T05:25:42;22.35;;;11.85;;
40993;SDS011;26722;43.212;27.932;2022-12-07T05:28:07;23.25;;;12.20;;
40993;SDS011;26722;43.212;27.932;2022-12-07T05:30:33;26.52;;;13.15;;
40993;SDS011;26722;43.212;27.932;2022-12-07T05:32:58;22.83;;;12.32;;
40993;SDS011;26722;43.212;27.932;2022-12-07T05:35:24;26.48;;;13.18;;
40993;SDS011;26722;43.212;27.932;2022-12-07T05:37:49;25.67;;;13.85;;
40993;SDS011;26722;43.212;27.932;2022-12-07T05:40:15;27.45;;;14.57;;
40993;SDS011;26722;43.212;27.932;2022-12-07T05:42:41;25.58;;;14.60;;
40993;SDS011;26722;43.212;27.932;2022-12-07T05:45:08;25.58;;;14.73;;
40993;SDS011;26722;43.212;27.932;2022-12-07T05:47:34;25.92;;;14.90;;
40993;SDS011;26722;43.212;27.932;2022-12-07T05:50:00;25.70;;;14.35;;
40993;SDS011;26722;43.212;27.932;2022-12-07T05:52:25;28.30;;;15.38;;
40993;SDS011;26722;43.212;27.932;2022-12-07T05:54:51;36.20;;;17.88;;
40993;SDS011;26722;43.212;27.932;2022-12-07T05:57:17;30.92;;;16.30;;
40993;SDS011;26722;43.212;27.932;2022-12-07T05:59:43;35.97;;;18.10;;
40993;SDS011;26722;43.212;27.932;2022-12-07T06:02:10;31.13;;;17.38;;
40993;SDS011;26722;43.212;27.932;2022-12-07T06:04:41;33.28;;;17.85;;
40993;SDS011;26722;43.212;27.932;2022-12-07T06:07:08;33.25;;;18.13;;
40993;SDS011;26722;43.212;27.932;2022-12-07T06:09:35;32.67;;;19.25;;
40993;SDS011;26722;43.212;27.932;2022-12-07T06:12:00;36.22;;;19.75;;
40993;SDS011;26722;43.212;27.932;2022-12-07T06:14:45;43.50;;;20.83;;
40993;SDS011;26722;43.212;27.932;2022-12-07T06:17:11;38.42;;;20.60;;
40993;SDS011;26722;43.212;27.932;2022-12-07T06:19:37;42.90;;;20.48;;
40993;SDS011;26722;43.212;27.932;2022-12-07T06:22:03;37.65;;;19.73;;
40993;SDS011;26722;43.212;27.932;2022-12-07T06:24:29;42.20;;;20.50;;
40993;SDS011;26722;43.212;27.932;2022-12-07T06:26:56;39.03;;;20.10;;
40993;SDS011;26722;43.212;27.932;2022-12-07T06:29:21;40.40;;;19.55;;
40993;SDS011;26722;43.212;27.932;2022-12-07T06:31:47;44.53;;;18.08;;
40993;SDS011;26722;43.212;27.932;2022-12-07T06:34:17;33.00;;;17.92;;
40993;SDS011;26722;43.212;27.932;2022-12-07T06:36:44;32.75;;;17.38;;
40993;SDS011;26722;43.212;27.932;2022-12-07T06:39:10;33.38;;;15.90;;
40993;SDS011;26722;43.212;27.932;2022-12-07T06:41:36;27.95;;;16.17;;
40993;SDS011;26722;43.212;27.932;2022-12-07T06:44:03;30.88;;;16.77;;
40993;SDS011;26722;43.212;27.932;2022-12-07T06:46:30;34.08;;;17.35;;
40993;SDS011;26722;43.212;27.932;2022-12-07T06:48:55;37.83;;;18.30;;
40993;SDS011;26722;43.212;27.932;2022-12-07T06:51:21;33.78;;;17.27;;
40993;SDS011;26722;43.212;27.932;2022-12-07T06:53:47;35.50;;;18.13;;
40993;SDS011;26722;43.212;27.932;2022-12-07T06:56:12;34.85;;;18.38;;
40993;SDS011;26722;43.212;27.932;2022-12-07T06:58:38;29.98;;;17.35;;
40993;SDS011;26722;43.212;27.932;2022-12-07T07:01:13;35.97;;;18.90;;
40993;SDS011;26722;43.212;27.932;2022-12-07T07:03:41;35.08;;;17.95;;
40993;SDS011;26722;43.212;27.932;2022-12-07T07:06:07;32.65;;;17.23;;
40993;SDS011;26722;43.212;27.932;2022-12-07T07:08:34;34.47;;;17.88;;
40993;SDS011;26722;43.212;27.932;2022-12-07T07:11:00;25.25;;;14.82;;
40993;SDS011;26722;43.212;27.932;2022-12-07T07:13:26;32.33;;;16.50;;
40993;SDS011;26722;43.212;27.932;2022-12-07T07:15:51;27.45;;;14.45;;
40993;SDS011;26722;43.212;27.932;2022-12-07T07:18:17;23.33;;;13.82;;
40993;SDS011;26722;43.212;27.932;2022-12-07T07:20:42;26.60;;;15.57;;
40993;SDS011;26722;43.212;27.932;2022-12-07T07:23:08;26.60;;;14.35;;
40993;SDS011;26722;43.212;27.932;2022-12-07T07:25:33;28.83;;;14.75;;
40993;SDS011;26722;43.212;27.932;2022-12-07T07:27:59;29.50;;;14.93;;
40993;SDS011;26722;43.212;27.932;2022-12-07T07:30:24;26.52;;;13.65;;
40993;SDS011;26722;43.212;27.932;2022-12-07T07:32:50;29.67;;;14.52;;
40993;SDS011;26722;43.212;27.932;2022-12-07T07:35:15;28.48;;;14.68;;
40993;SDS011;26722;43.212;27.932;2022-12-07T07:37:41;30.23;;;15.40;;
40993;SDS011;26722;43.212;27.932;2022-12-07T07:40:07;26.77;;;15.02;;
40993;SDS011;26722;43.212;27.932;2022-12-07T07:42:33;26.98;;;15.02;;
40993;SDS011;26722;43.212;27.932;2022-12-07T07:44:59;28.63;;;14.63;;
40993;SDS011;26722;43.212;27.932;2022-12-07T07:47:24;29.67;;;13.73;;
40993;SDS011;26722;43.212;27.932;2022-12-07T07:49:50;26.83;;;13.70;;
40993;SDS011;26722;43.212;27.932;2022-12-07T07:52:15;22.33;;;12.38;;
40993;SDS011;26722;43.212;27.932;2022-12-07T07:54:41;22.48;;;13.23;;
40993;SDS011;26722;43.212;27.932;2022-12-07T07:57:06;23.33;;;11.30;;
40993;SDS011;26722;43.212;27.932;2022-12-07T07:59:31;26.23;;;11.57;;
40993;SDS011;26722;43.212;27.932;2022-12-07T08:01:57;19.52;;;11.43;;
40993;SDS011;26722;43.212;27.932;2022-12-07T08:04:22;23.40;;;12.60;;
40993;SDS011;26722;43.212;27.932;2022-12-07T08:06:48;21.00;;;11.52;;
40993;SDS011;26722;43.212;27.932;2022-12-07T08:09:13;23.30;;;11.90;;
40993;SDS011;26722;43.212;27.932;2022-12-07T08:11:39;22.05;;;11.65;;
40993;SDS011;26722;43.212;27.932;2022-12-07T08:14:04;20.40;;;11.70;;
40993;SDS011;26722;43.212;27.932;2022-12-07T08:16:29;19.15;;;11.75;;
40993;SDS011;26722;43.212;27.932;2022-12-07T08:18:55;19.70;;;10.55;;
40993;SDS011;26722;43.212;27.932;2022-12-07T08:21:21;26.73;;;11.55;;
40993;SDS011;26722;43.212;27.932;2022-12-07T08:23:46;16.73;;;10.93;;
40993;SDS011;26722;43.212;27.932;2022-12-07T08:26:13;21.45;;;12.05;;
40993;SDS011;26722;43.212;27.932;2022-12-07T08:28:40;24.33;;;10.63;;
40993;SDS011;26722;43.212;27.932;2022-12-07T08:31:07;21.67;;;10.88;;
40993;SDS011;26722;43.212;27.932;2022-12-07T08:33:35;19.42;;;10.70;;
40993;SDS011;26722;43.212;27.932;2022-12-07T08:36:02;29.00;;;12.00;;
40993;SDS011;26722;43.212;27.932;2022-12-07T08:38:34;25.05;;;11.38;;
40993;SDS011;26722;43.212;27.932;2022-12-07T08:41:00;25.23;;;11.75;;
40993;SDS011;26722;43.212;27.932;2022-12-07T08:43:26;18.20;;;10.88;;
40993;SDS011;26722;43.212;27.932;2022-12-07T08:46:35;24.15;;;11.82;;
40993;SDS011;26722;43.212;27.932;2022-12-07T08:49:02;22.42;;;11.02;;
40993;SDS011;26722;43.212;27.932;2022-12-07T08:51:33;18.30;;;10.75;;
40993;SDS011;26722;43.212;27.932;2022-12-07T08:53:58;23.10;;;9.93;;
40993;SDS011;26722;43.212;27.932;2022-12-07T08:56:27;19.45;;;9.27;;
40993;SDS011;26722;43.212;27.932;2022-12-07T08:58:53;17.25;;;9.18;;
40993;SDS011;26722;43.212;27.932;2022-12-07T09:01:19;19.70;;;9.93;;
40993;SDS011;26722;43.212;27.932;2022-12-07T09:03:44;17.10;;;8.57;;
40993;SDS011;26722;43.212;27.932;2022-12-07T09:06:10;18.83;;;9.25;;
40993;SDS011;26722;43.212;27.932;2022-12-07T09:08:36;19.60;;;8.77;;
40993;SDS011;26722;43.212;27.932;2022-12-07T09:11:08;20.75;;;9.30;;
40993;SDS011;26722;43.212;27.932;2022-12-07T09:13:34;15.95;;;9.02;;
40993;SDS011;26722;43.212;27.932;2022-12-07T09:15:59;15.18;;;9.23;;
40993;SDS011;26722;43.212;27.932;2022-12-07T09:18:24;18.13;;;9.23;;
40993;SDS011;26722;43.212;27.932;2022-12-07T09:20:50;24.13;;;11.70;;
40993;SDS011;26722;43.212;27.932;2022-12-07T09:23:16;18.55;;;9.50;;
40993;SDS011;26722;43.212;27.932;2022-12-07T09:25:42;19.65;;;9.25;;
40993;SDS011;26722;43.212;27.932;2022-12-07T09:28:07;19.58;;;9.98;;
40993;SDS011;26722;43.212;27.932;2022-12-07T09:30:33;19.08;;;10.43;;
40993;SDS011;26722;43.212;27.932;2022-12-07T09:32:59;22.58;;;10.85;;
40993;SDS011;26722;43.212;27.932;2022-12-07T09:35:24;21.17;;;11.70;;
40993;SDS011;26722;43.212;27.932;2022-12-07T09:37:50;16.35;;;9.82;;
40993;SDS011;26722;43.212;27.932;2022-12-07T09:40:16;19.65;;;10.30;;
40993;SDS011;26722;43.212;27.932;2022-12-07T09:42:44;18.45;;;10.73;;
40993;SDS011;26722;43.212;27.932;2022-12-07T09:45:15;20.83;;;12.10;;
40993;SDS011;26722;43.212;27.932;2022-12-07T09:47:45;17.20;;;10.02;;
40993;SDS011;26722;43.212;27.932;2022-12-07T09:50:13;22.25;;;11.68;;
40993;SDS011;26722;43.212;27.932;2022-12-07T09:52:40;22.58;;;10.80;;
40993;SDS011;26722;43.212;27.932;2022-12-07T09:55:11;21.27;;;10.57;;
40993;SDS011;26722;43.212;27.932;2022-12-07T09:57:38;23.92;;;9.95;;
40993;SDS011;26722;43.212;27.932;2022-12-07T10:00:07;20.17;;;10.02;;
40993;SDS011;26722;43.212;27.932;2022-12-07T10:02:41;18.90;;;10.65;;
40993;SDS011;26722;43.212;27.932;2022-12-07T10:05:13;19.52;;;10.80;;
40993;SDS011;26722;43.212;27.932;2022-12-07T10:07:41;21.15;;;11.43;;
40993;SDS011;26722;43.212;27.932;2022-12-07T10:10:15;17.45;;;10.52;;
40993;SDS011;26722;43.212;27.932;2022-12-07T10:12:55;15.95;;;10.57;;
40993;SDS011;26722;43.212;27.932;2022-12-07T10:15:23;20.17;;;10.90;;
40993;SDS011;26722;43.212;27.932;2022-12-07T10:17:50;18.05;;;11.25;;
40993;SDS011;26722;43.212;27.932;2022-12-07T10:20:18;21.92;;;12.85;;
40993;SDS011;26722;43.212;27.932;2022-12-07T10:23:14;21.98;;;12.20;;
40993;SDS011;26722;43.212;27.932;2022-12-07T10:25:41;26.85;;;12.15;;
40993;SDS011;26722;43.212;27.932;2022-12-07T10:30:33;18.05;;;9.95;;
40993;SDS011;26722;43.212;27.932;2022-12-07T10:33:27;18.02;;;11.52;;
40993;SDS011;26722;43.212;27.932;2022-12-07T10:35:54;23.73;;;11.75;;
40993;SDS011;26722;43.212;27.932;2022-12-07T10:38:20;17.88;;;10.68;;
40993;SDS011;26722;43.212;27.932;2022-12-07T10:40:47;21.60;;;12.05;;
40993;SDS011;26722;43.212;27.932;2022-12-07T10:43:27;21.17;;;10.73;;
40993;SDS011;26722;43.212;27.932;2022-12-07T10:49:11;14.55;;;9.27;;
40993;SDS011;26722;43.212;27.932;2022-12-07T10:57:47;18.45;;;10.57;;
40993;SDS011;26722;43.212;27.932;2022-12-07T11:00:38;21.23;;;10.35;;
40993;SDS011;26722;43.212;27.932;2022-12-07T11:05:55;23.35;;;11.48;;
40993;SDS011;26722;43.212;27.932;2022-12-07T11:08:38;22.27;;;11.75;;
40993;SDS011;26722;43.212;27.932;2022-12-07T11:11:30;18.77;;;11.45;;
40993;SDS011;26722;43.212;27.932;2022-12-07T11:16:36;29.38;;;12.27;;
40993;SDS011;26722;43.212;27.932;2022-12-07T11:33:20;21.10;;;10.43;;
40993;SDS011;26722;43.212;27.932;2022-12-07T11:36:16;19.38;;;12.13;;
40993;SDS011;26722;43.212;27.932;2022-12-07T11:38:43;16.33;;;9.00;;
40993;SDS011;26722;43.212;27.932;2022-12-07T11:41:16;18.38;;;9.05;;
40993;SDS011;26722;43.212;27.932;2022-12-07T11:43:59;16.55;;;9.00;;
40993;SDS011;26722;43.212;27.932;2022-12-07T11:46:40;17.08;;;9.20;;
40993;SDS011;26722;43.212;27.932;2022-12-07T11:52:02;18.92;;;10.32;;
40993;SDS011;26722;43.212;27.932;2022-12-07T11:54:40;18.35;;;10.10;;
40993;SDS011;26722;43.212;27.932;2022-12-07T11:57:18;19.00;;;10.20;;
40993;SDS011;26722;43.212;27.932;2022-12-07T11:59:51;17.27;;;9.98;;
40993;SDS011;26722;43.212;27.932;2022-12-07T12:02:38;16.30;;;9.80;;
40993;SDS011;26722;43.212;27.932;2022-12-07T12:05:32;17.60;;;9.43;;
40993;SDS011;26722;43.212;27.932;2022-12-07T12:13:28;16.27;;;10.10;;
40993;SDS011;26722;43.212;27.932;2022-12-07T12:22:13;19.40;;;10.43;;
40993;SDS011;26722;43.212;27.932;2022-12-07T12:24:43;17.75;;;9.90;;
40993;SDS011;26722;43.212;27.932;2022-12-07T12:27:23;18.02;;;9.90;;
40993;SDS011;26722;43.212;27.932;2022-12-07T12:29:57;21.80;;;10.00;;
40993;SDS011;26722;43.212;27.932;2022-12-07T12:32:38;18.40;;;10.32;;
40993;SDS011;26722;43.212;27.932;2022-12-07T12:37:51;22.45;;;10.57;;
40993;SDS011;26722;43.212;27.932;2022-12-07T12:42:47;24.23;;;10.93;;
40993;SDS011;26722;43.212;27.932;2022-12-07T12:45:22;23.13;;;12.07;;
40993;SDS011;26722;43.212;27.932;2022-12-07T12:47:58;22.58;;;11.32;;
40993;SDS011;26722;43.212;27.932;2022-12-07T12:50:32;24.92;;;11.55;;
40993;SDS011;26722;43.212;27.932;2022-12-07T12:53:20;19.48;;;11.77;;
40993;SDS011;26722;43.212;27.932;2022-12-07T13:00:45;24.75;;;11.25;;
40993;SDS011;26722;43.212;27.932;2022-12-07T13:03:22;20.92;;;11.38;;
40993;SDS011;26722;43.212;27.932;2022-12-07T13:06:37;19.23;;;10.15;;
40993;SDS011;26722;43.212;27.932;2022-12-07T13:08:50;21.42;;;12.27;;
40993;SDS011;26722;43.212;27.932;2022-12-07T13:11:25;23.27;;;12.55;;
40993;SDS011;26722;43.212;27.932;2022-12-07T13:16:59;24.17;;;10.60;;
40993;SDS011;26722;43.212;27.932;2022-12-07T13:22:50;23.88;;;12.32;;
40993;SDS011;26722;43.212;27.932;2022-12-07T13:24:57;26.08;;;12.68;;
40993;SDS011;26722;43.212;27.932;2022-12-07T13:27:28;24.42;;;12.55;;
40993;SDS011;26722;43.212;27.932;2022-12-07T13:29:56;22.48;;;12.30;;
40993;SDS011;26722;43.212;27.932;2022-12-07T13:32:23;21.90;;;11.27;;
40993;SDS011;26722;43.212;27.932;2022-12-07T13:34:50;22.00;;;11.20;;
40993;SDS011;26722;43.212;27.932;2022-12-07T13:37:26;22.88;;;11.55;;
40993;SDS011;26722;43.212;27.932;2022-12-07T13:39:57;19.55;;;10.68;;
40993;SDS011;26722;43.212;27.932;2022-12-07T13:42:30;21.70;;;10.95;;
40993;SDS011;26722;43.212;27.932;2022-12-07T13:44:58;23.05;;;10.63;;
40993;SDS011;26722;43.212;27.932;2022-12-07T13:47:34;21.25;;;12.20;;
40993;SDS011;26722;43.212;27.932;2022-12-07T13:50:51;22.85;;;12.20;;
40993;SDS011;26722;43.212;27.932;2022-12-07T13:52:58;24.73;;;12.43;;
40993;SDS011;26722;43.212;27.932;2022-12-07T13:55:25;26.10;;;11.80;;
40993;SDS011;26722;43.212;27.932;2022-12-07T13:57:52;25.08;;;12.45;;
40993;SDS011;26722;43.212;27.932;2022-12-07T14:00:25;24.83;;;12.43;;
40993;SDS011;26722;43.212;27.932;2022-12-07T14:05:25;25.00;;;12.45;;
40993;SDS011;26722;43.212;27.932;2022-12-07T14:07:56;25.33;;;12.60;;
40993;SDS011;26722;43.212;27.932;2022-12-07T14:10:29;27.33;;;12.50;;
40993;SDS011;26722;43.212;27.932;2022-12-07T14:12:58;26.55;;;12.27;;
40993;SDS011;26722;43.212;27.932;2022-12-07T14:15:32;29.05;;;13.40;;
40993;SDS011;26722;43.212;27.932;2022-12-07T14:18:00;25.83;;;13.20;;
40993;SDS011;26722;43.212;27.932;2022-12-07T14:20:32;27.33;;;13.25;;
40993;SDS011;26722;43.212;27.932;2022-12-07T14:23:19;25.05;;;12.88;;
40993;SDS011;26722;43.212;27.932;2022-12-07T14:25:50;28.85;;;14.13;;
40993;SDS011;26722;43.212;27.932;2022-12-07T14:28:28;27.88;;;14.40;;
40993;SDS011;26722;43.212;27.932;2022-12-07T14:30:55;36.08;;;15.07;;
40993;SDS011;26722;43.212;27.932;2022-12-07T14:33:21;33.85;;;14.95;;
40993;SDS011;26722;43.212;27.932;2022-12-07T14:35:47;34.85;;;14.48;;
40993;SDS011;26722;43.212;27.932;2022-12-07T14:38:14;29.33;;;14.02;;
40993;SDS011;26722;43.212;27.932;2022-12-07T14:40:40;26.85;;;13.38;;
40993;SDS011;26722;43.212;27.932;2022-12-07T14:43:08;26.20;;;13.68;;
40993;SDS011;26722;43.212;27.932;2022-12-07T14:45:35;29.05;;;14.00;;
40993;SDS011;26722;43.212;27.932;2022-12-07T14:48:01;44.55;;;15.10;;
40993;SDS011;26722;43.212;27.932;2022-12-07T14:50:26;27.52;;;14.63;;
40993;SDS011;26722;43.212;27.932;2022-12-07T14:53:01;27.05;;;13.38;;
40993;SDS011;26722;43.212;27.932;2022-12-07T14:55:37;26.50;;;13.25;;
40993;SDS011;26722;43.212;27.932;2022-12-07T14:58:03;27.60;;;12.95;;
40993;SDS011;26722;43.212;27.932;2022-12-07T15:00:29;29.27;;;12.90;;
40993;SDS011;26722;43.212;27.932;2022-12-07T15:02:55;31.45;;;12.95;;
40993;SDS011;26722;43.212;27.932;2022-12-07T15:05:21;36.90;;;13.15;;
40993;SDS011;26722;43.212;27.932;2022-12-07T15:07:47;31.90;;;13.40;;
40993;SDS011;26722;43.212;27.932;2022-12-07T15:10:18;28.15;;;13.43;;
40993;SDS011;26722;43.212;27.932;2022-12-07T15:12:49;31.15;;;14.25;;
40993;SDS011;26722;43.212;27.932;2022-12-07T15:15:15;29.23;;;13.02;;
40993;SDS011;26722;43.212;27.932;2022-12-07T15:17:40;29.42;;;13.60;;
40993;SDS011;26722;43.212;27.932;2022-12-07T15:20:08;32.85;;;12.82;;
40993;SDS011;26722;43.212;27.932;2022-12-07T15:22:37;33.38;;;14.07;;
40993;SDS011;26722;43.212;27.932;2022-12-07T15:25:02;23.48;;;12.93;;
40993;SDS011;26722;43.212;27.932;2022-12-07T15:27:29;32.17;;;14.23;;
40993;SDS011;26722;43.212;27.932;2022-12-07T15:29:55;28.17;;;14.27;;
40993;SDS011;26722;43.212;27.932;2022-12-07T15:32:21;32.53;;;13.65;;
40993;SDS011;26722;43.212;27.932;2022-12-07T15:34:47;30.73;;;14.27;;
40993;SDS011;26722;43.212;27.932;2022-12-07T15:37:13;29.50;;;13.90;;
40993;SDS011;26722;43.212;27.932;2022-12-07T15:39:39;33.63;;;14.05;;
40993;SDS011;26722;43.212;27.932;2022-12-07T15:42:04;35.80;;;14.68;;
40993;SDS011;26722;43.212;27.932;2022-12-07T15:44:30;30.10;;;14.82;;
40993;SDS011;26722;43.212;27.932;2022-12-07T15:47:13;33.05;;;14.15;;
40993;SDS011;26722;43.212;27.932;2022-12-07T15:49:39;31.38;;;14.50;;
40993;SDS011;26722;43.212;27.932;2022-12-07T15:52:04;28.63;;;14.52;;
40993;SDS011;26722;43.212;27.932;2022-12-07T15:54:30;29.40;;;15.15;;
40993;SDS011;26722;43.212;27.932;2022-12-07T15:56:57;33.33;;;15.02;;
40993;SDS011;26722;43.212;27.932;2022-12-07T15:59:23;31.98;;;14.68;;
40993;SDS011;26722;43.212;27.932;2022-12-07T16:01:49;30.35;;;14.00;;
40993;SDS011;26722;43.212;27.932;2022-12-07T16:04:14;32.13;;;14.63;;
40993;SDS011;26722;43.212;27.932;2022-12-07T16:06:40;34.50;;;14.65;;
40993;SDS011;26722;43.212;27.932;2022-12-07T16:09:05;33.38;;;15.95;;
40993;SDS011;26722;43.212;27.932;2022-12-07T16:11:31;35.10;;;15.55;;
40993;SDS011;26722;43.212;27.932;2022-12-07T16:13:57;43.33;;;17.88;;
40993;SDS011;26722;43.212;27.932;2022-12-07T16:16:22;36.47;;;17.67;;